createdAt,value
2023-02-06T00:00:26.288Z,50.908157
2023-02-06T00:01:26.261Z,50.908150
2023-02-06T00:02:27.291Z,50.908154
2023-02-06T00:03:26.286Z,50.908184
2023-02-06T00:04:26.254Z,50.908127
2023-02-06T00:05:26.282Z,50.908173
2023-02-06T00:06:26.235Z,50.908188
2023-02-06T00:07:26.240Z,50.908157
2023-02-06T00:08:26.250Z,50.908199
2023-02-06T00:09:26.214Z,50.908180
2023-02-06T00:10:26.203Z,50.908138
2023-02-06T00:11:26.199Z,50.908112
2023-02-06T00:12:26.193Z,50.908222
2023-02-06T00:13:26.203Z,50.908192
2023-02-06T00:14:26.168Z,50.908051
2023-02-06T00:15:26.223Z,50.908035
2023-02-06T00:16:26.157Z,50.908009
2023-02-06T00:17:26.149Z,50.907860
2023-02-06T00:18:26.169Z,50.908077
2023-02-06T00:19:26.128Z,50.908192
2023-02-06T00:20:26.123Z,50.908150
2023-02-06T00:21:26.173Z,50.908192
2023-02-06T00:22:26.106Z,50.908108
2023-02-06T00:23:26.136Z,50.908085
2023-02-06T00:24:26.089Z,50.908085
2023-02-06T00:25:26.087Z,50.907993
2023-02-06T00:26:26.081Z,50.908169
2023-02-06T00:27:26.068Z,50.908180
2023-02-06T00:28:26.067Z,50.908154
2023-02-06T00:29:26.075Z,50.908127
2023-02-06T00:30:26.066Z,50.908031
2023-02-06T00:31:26.060Z,50.908073
2023-02-06T00:32:26.093Z,50.908131
2023-02-06T00:33:26.019Z,50.908226
2023-02-06T00:34:26.037Z,50.908268
2023-02-06T00:35:26.006Z,50.907867
2023-02-06T00:36:27.004Z,50.907959
2023-02-06T00:37:25.996Z,50.908104
2023-02-06T00:38:25.991Z,50.908115
2023-02-06T00:39:26.006Z,50.908161
2023-02-06T00:40:25.970Z,50.908176
2023-02-06T00:41:25.967Z,50.908127
2023-02-06T00:42:25.954Z,50.908134
2023-02-06T00:43:25.949Z,50.908081
2023-02-06T00:44:25.965Z,50.908077
2023-02-06T00:45:25.931Z,50.908173
2023-02-06T00:46:25.951Z,50.908180
2023-02-06T00:47:25.922Z,50.908157
2023-02-06T00:48:25.922Z,50.908146
2023-02-06T00:49:25.929Z,50.908089
2023-02-06T00:50:25.894Z,50.908119
2023-02-06T00:51:25.884Z,50.908154
2023-02-06T00:52:25.881Z,50.908211
2023-02-06T00:53:25.871Z,50.908157
2023-02-06T00:54:25.886Z,50.908146
2023-02-06T00:55:25.850Z,50.908115
2023-02-06T00:56:25.849Z,50.908115
2023-02-06T00:57:25.848Z,50.908150
2023-02-06T00:58:25.837Z,50.908142
2023-02-06T00:59:25.844Z,50.908199
2023-02-06T01:00:25.814Z,50.908115
2023-02-06T01:01:25.812Z,50.908123
2023-02-06T01:02:25.827Z,50.908123
2023-02-06T01:03:25.788Z,50.908195
2023-02-06T01:04:25.794Z,50.908195
2023-02-06T01:05:26.776Z,50.908249
2023-02-06T01:06:25.780Z,50.908092
2023-02-06T01:07:25.766Z,50.908287
2023-02-06T01:08:25.749Z,50.908058
2023-02-06T01:09:25.771Z,50.908073
2023-02-06T01:10:25.722Z,50.908073
2023-02-06T01:11:26.725Z,50.908073
2023-02-06T01:12:25.718Z,50.908070
2023-02-06T01:13:25.705Z,50.908051
2023-02-06T01:14:25.725Z,50.908131
2023-02-06T01:15:25.698Z,50.908112
2023-02-06T01:16:25.748Z,50.908073
2023-02-06T01:17:25.679Z,50.908058
2023-02-06T01:18:25.672Z,50.907990
2023-02-06T01:19:25.687Z,50.908005
2023-02-06T01:20:25.653Z,50.908062
2023-02-06T01:21:25.652Z,50.908123
2023-02-06T01:22:26.639Z,50.908085
2023-02-06T01:23:25.631Z,50.908073
2023-02-06T01:24:25.647Z,50.908081
2023-02-06T01:25:25.614Z,50.908127
2023-02-06T01:26:25.604Z,50.908073
2023-02-06T01:27:25.594Z,50.908077
2023-02-06T01:28:25.594Z,50.908066
2023-02-06T01:29:25.611Z,50.908016
2023-02-06T01:30:25.630Z,50.907993
2023-02-06T01:31:25.626Z,50.908070
2023-02-06T01:32:25.566Z,50.908062
2023-02-06T01:33:25.557Z,50.908062
2023-02-06T01:34:25.578Z,50.908051
2023-02-06T01:35:25.544Z,50.908131
2023-02-06T01:36:25.537Z,50.908081
2023-02-06T01:37:25.534Z,50.908092
2023-02-06T01:38:25.519Z,50.908142
2023-02-06T01:39:25.534Z,50.908100
2023-02-06T01:40:25.509Z,50.908051
2023-02-06T01:41:25.490Z,50.908043
2023-02-06T01:42:25.497Z,50.908081
2023-02-06T01:43:25.493Z,50.908142
2023-02-06T01:44:25.495Z,50.908161
2023-02-06T01:45:25.468Z,50.908150
2023-02-06T01:46:25.489Z,50.908066
2023-02-06T01:47:25.447Z,50.908115
2023-02-06T01:48:25.447Z,50.908134
2023-02-06T01:49:25.456Z,50.908104
2023-02-06T01:50:25.433Z,50.908157
2023-02-06T01:51:25.418Z,50.908184
2023-02-06T01:52:25.407Z,50.908154
2023-02-06T01:53:25.400Z,50.908161
2023-02-06T01:54:25.432Z,50.908211
2023-02-06T01:55:25.384Z,50.908184
2023-02-06T01:56:25.376Z,50.908157
2023-02-06T01:57:25.374Z,50.908169
2023-02-06T01:58:25.362Z,50.908165
2023-02-06T01:59:25.376Z,50.908169
2023-02-06T02:00:25.392Z,50.908165
2023-02-06T02:01:25.340Z,50.908169
2023-02-06T02:02:25.335Z,50.908131
2023-02-06T02:03:25.320Z,50.908115
2023-02-06T02:04:25.338Z,50.908165
2023-02-06T02:05:25.302Z,50.908089
2023-02-06T02:06:25.303Z,50.908157
2023-02-06T02:07:25.286Z,50.908169
2023-02-06T02:08:25.277Z,50.908207
2023-02-06T02:09:25.296Z,50.908195
2023-02-06T02:10:25.262Z,50.908127
2023-02-06T02:11:25.249Z,50.908192
2023-02-06T02:12:26.252Z,50.908215
2023-02-06T02:13:25.254Z,50.908150
2023-02-06T02:14:25.260Z,50.908150
2023-02-06T02:15:25.228Z,50.908169
2023-02-06T02:16:25.290Z,50.908119
2023-02-06T02:17:25.214Z,50.908150
2023-02-06T02:18:25.203Z,50.908180
2023-02-06T02:19:25.232Z,50.908176
2023-02-06T02:20:25.195Z,50.908077
2023-02-06T02:21:25.178Z,50.908115
2023-02-06T02:22:25.170Z,50.908165
2023-02-06T02:23:25.159Z,50.908161
2023-02-06T02:24:25.160Z,50.908150
2023-02-06T02:25:25.181Z,50.908169
2023-02-06T02:26:25.142Z,50.908180
2023-02-06T02:27:25.128Z,50.908165
2023-02-06T02:28:25.141Z,50.908146
2023-02-06T02:29:25.125Z,50.908169
2023-02-06T02:30:25.169Z,50.908203
2023-02-06T02:31:25.129Z,50.908180
2023-02-06T02:32:25.096Z,50.908176
2023-02-06T02:33:25.088Z,50.908180
2023-02-06T02:34:25.076Z,50.908234
2023-02-06T02:35:25.103Z,50.908230
2023-02-06T02:36:25.064Z,50.908237
2023-02-06T02:37:25.055Z,50.908096
2023-02-06T02:38:25.049Z,50.908077
2023-02-06T02:39:25.152Z,50.908295
2023-02-06T02:40:25.059Z,50.908073
2023-02-06T02:41:25.026Z,50.908134
2023-02-06T02:42:25.024Z,50.907940
2023-02-06T02:43:25.018Z,50.908081
2023-02-06T02:44:24.999Z,50.908161
2023-02-06T02:45:25.083Z,50.908211
2023-02-06T02:46:24.991Z,50.908146
2023-02-06T02:47:24.977Z,50.908085
2023-02-06T02:48:24.968Z,50.908100
2023-02-06T02:49:24.956Z,50.908150
2023-02-06T02:50:24.974Z,50.908127
2023-02-06T02:51:24.963Z,50.908138
2023-02-06T02:52:24.936Z,50.908150
2023-02-06T02:53:24.926Z,50.908195
2023-02-06T02:54:24.923Z,50.908188
2023-02-06T02:55:24.951Z,50.908161
2023-02-06T02:56:24.904Z,50.908165
2023-02-06T02:57:24.896Z,50.908142
2023-02-06T02:58:24.919Z,50.908127
2023-02-06T02:59:24.874Z,50.908092
2023-02-06T03:00:24.891Z,50.908119
2023-02-06T03:01:24.858Z,50.908127
2023-02-06T03:02:24.940Z,50.908127
2023-02-06T03:03:24.843Z,50.908192
2023-02-06T03:04:24.843Z,50.908161
2023-02-06T03:05:24.858Z,50.908146
2023-02-06T03:06:24.834Z,50.908131
2023-02-06T03:07:24.819Z,50.908096
2023-02-06T03:08:24.805Z,50.908096
2023-02-06T03:09:24.796Z,50.908131
2023-02-06T03:10:24.803Z,50.908142
2023-02-06T03:11:24.877Z,50.908127
2023-02-06T03:12:24.788Z,50.908134
2023-02-06T03:13:24.764Z,50.908119
2023-02-06T03:14:24.760Z,50.908142
2023-02-06T03:15:24.776Z,50.908127
2023-02-06T03:16:24.764Z,50.908127
2023-02-06T03:17:24.729Z,50.908092
2023-02-06T03:18:24.731Z,50.908100
2023-02-06T03:19:24.720Z,50.908077
2023-02-06T03:20:24.734Z,50.908096
2023-02-06T03:21:24.704Z,50.908146
2023-02-06T03:22:24.698Z,50.908131
2023-02-06T03:23:24.693Z,50.908077
2023-02-06T03:24:24.685Z,50.908089
2023-02-06T03:25:24.704Z,50.908104
2023-02-06T03:26:24.662Z,50.908154
2023-02-06T03:27:24.656Z,50.908096
2023-02-06T03:28:24.643Z,50.908131
2023-02-06T03:29:24.645Z,50.908131
2023-02-06T03:30:24.655Z,50.908123
2023-02-06T03:31:24.667Z,50.908100
2023-02-06T03:32:24.632Z,50.908081
2023-02-06T03:33:24.608Z,50.908085
2023-02-06T03:34:24.598Z,50.908108
2023-02-06T03:35:24.625Z,50.908127
2023-02-06T03:36:24.579Z,50.908138
2023-02-06T03:37:24.573Z,50.908104
2023-02-06T03:38:24.577Z,50.908108
2023-02-06T03:39:24.555Z,50.908096
2023-02-06T03:40:24.553Z,50.908070
2023-02-06T03:41:24.572Z,50.908104
2023-02-06T03:42:24.544Z,50.908104
2023-02-06T03:43:24.531Z,50.908081
2023-02-06T03:44:24.520Z,50.908066
2023-02-06T03:45:24.509Z,50.908077
2023-02-06T03:46:24.536Z,50.908085
2023-02-06T03:47:24.500Z,50.908081
2023-02-06T03:48:24.492Z,50.908081
2023-02-06T03:49:24.490Z,50.908054
2023-02-06T03:50:24.483Z,50.908070
2023-02-06T03:51:24.493Z,50.908112
2023-02-06T03:52:24.459Z,50.908081
2023-02-06T03:53:24.454Z,50.908092
2023-02-06T03:54:24.454Z,50.908108
2023-02-06T03:55:24.436Z,50.908104
2023-02-06T03:56:24.449Z,50.908077
2023-02-06T03:57:24.426Z,50.908085
2023-02-06T03:58:24.813Z,50.908104
2023-02-06T03:59:25.411Z,50.908138
2023-02-06T04:00:24.402Z,50.908123
2023-02-06T04:01:24.448Z,50.908119
2023-02-06T04:02:24.447Z,50.908112
2023-02-06T04:03:24.372Z,50.908127
2023-02-06T04:04:24.362Z,50.908115
2023-02-06T04:05:24.361Z,50.908073
2023-02-06T04:06:24.375Z,50.908108
2023-02-06T04:07:24.342Z,50.908138
2023-02-06T04:08:24.343Z,50.908173
2023-02-06T04:09:24.324Z,50.908138
2023-02-06T04:10:26.226Z,50.908150
2023-02-06T04:11:25.340Z,50.908119
2023-02-06T04:12:24.307Z,50.908157
2023-02-06T04:13:24.301Z,50.908199
2023-02-06T04:14:24.286Z,50.908176
2023-02-06T04:15:24.279Z,50.908195
2023-02-06T04:16:24.330Z,50.908173
2023-02-06T04:17:40.785Z,50.908180
2023-02-06T04:18:26.254Z,50.908165
2023-02-06T04:19:24.272Z,50.908169
2023-02-06T04:20:24.247Z,50.908207
2023-02-06T04:21:24.261Z,50.908291
2023-02-06T04:22:24.230Z,50.908203
2023-02-06T04:23:24.219Z,50.908203
2023-02-06T04:24:24.212Z,50.908180
2023-02-06T04:25:24.199Z,50.908142
2023-02-06T04:26:24.221Z,50.908154
2023-02-06T04:27:24.183Z,50.908173
2023-02-06T04:28:25.176Z,50.908085
2023-02-06T04:29:24.173Z,50.908119
2023-02-06T04:30:24.179Z,50.908169
2023-02-06T04:31:24.265Z,50.908142
2023-02-06T04:32:24.144Z,50.908199
2023-02-06T04:33:24.136Z,50.908165
2023-02-06T04:34:24.129Z,50.908188
2023-02-06T04:35:24.132Z,50.908169
2023-02-06T04:36:24.143Z,50.908173
2023-02-06T04:37:24.107Z,50.908169
2023-02-06T04:38:24.096Z,50.908199
2023-02-06T04:39:24.093Z,50.908150
2023-02-06T04:40:24.098Z,50.908184
2023-02-06T04:41:24.114Z,50.908176
2023-02-06T04:42:24.073Z,50.908173
2023-02-06T04:43:24.058Z,50.908146
2023-02-06T04:44:24.068Z,50.908161
2023-02-06T04:45:24.040Z,50.908234
2023-02-06T04:46:24.043Z,50.908134
2023-02-06T04:47:24.149Z,50.908188
2023-02-06T04:48:24.020Z,50.908169
2023-02-06T04:49:24.016Z,50.908173
2023-02-06T04:50:24.002Z,50.908161
2023-02-06T04:51:24.000Z,50.908115
2023-02-06T04:52:24.015Z,50.908161
2023-02-06T04:53:23.981Z,50.908211
2023-02-06T04:54:23.987Z,50.908154
2023-02-06T04:55:23.960Z,50.908199
2023-02-06T04:56:23.959Z,50.908188
2023-02-06T04:57:23.989Z,50.908134
2023-02-06T04:58:23.939Z,50.908119
2023-02-06T04:59:23.930Z,50.908108
2023-02-06T05:00:23.928Z,50.908192
2023-02-06T05:01:23.962Z,50.908157
2023-02-06T05:02:24.016Z,50.908127
2023-02-06T05:03:23.904Z,50.908154
2023-02-06T05:04:23.889Z,50.908146
2023-02-06T05:05:23.883Z,50.908161
2023-02-06T05:06:23.881Z,50.908184
2023-02-06T05:07:23.897Z,50.908176
2023-02-06T05:08:23.854Z,50.908123
2023-02-06T05:09:23.853Z,50.908188
2023-02-06T05:10:23.885Z,50.908207
2023-02-06T05:11:23.836Z,50.908218
2023-02-06T05:12:23.853Z,50.908203
2023-02-06T05:13:23.805Z,50.908176
2023-02-06T05:14:23.800Z,50.908108
2023-02-06T05:15:23.801Z,50.908150
2023-02-06T05:16:23.783Z,50.908165
2023-02-06T05:17:23.802Z,50.908161
2023-02-06T05:18:23.789Z,50.908154
2023-02-06T05:19:23.765Z,50.908180
2023-02-06T05:20:23.757Z,50.908154
2023-02-06T05:21:23.749Z,50.908142
2023-02-06T05:22:23.762Z,50.908180
2023-02-06T05:23:23.726Z,50.908222
2023-02-06T05:24:23.718Z,50.908249
2023-02-06T05:25:23.715Z,50.908215
2023-02-06T05:26:23.707Z,50.908199
2023-02-06T05:27:23.738Z,50.908127
2023-02-06T05:28:23.697Z,50.908066
2023-02-06T05:29:23.681Z,50.908222
2023-02-06T05:30:23.668Z,50.908234
2023-02-06T05:31:23.840Z,50.908150
2023-02-06T05:32:23.686Z,50.908184
2023-02-06T05:33:23.654Z,50.908203
2023-02-06T05:34:23.642Z,50.908218
2023-02-06T05:35:23.636Z,50.908112
2023-02-06T05:36:23.630Z,50.908287
2023-02-06T05:37:23.637Z,50.908276
2023-02-06T05:38:24.610Z,50.908192
2023-02-06T05:39:23.602Z,50.908184
2023-02-06T05:40:23.607Z,50.908188
2023-02-06T05:41:23.614Z,50.908253
2023-02-06T05:42:23.610Z,50.908234
2023-02-06T05:43:23.575Z,50.908203
2023-02-06T05:44:23.574Z,50.908211
2023-02-06T05:45:23.565Z,50.908192
2023-02-06T05:46:23.590Z,50.908291
2023-02-06T05:47:23.579Z,50.908287
2023-02-06T05:48:23.541Z,50.908226
2023-02-06T05:49:23.534Z,50.908222
2023-02-06T05:50:23.521Z,50.908257
2023-02-06T05:51:23.516Z,50.908295
2023-02-06T05:52:23.534Z,50.908321
2023-02-06T05:53:23.507Z,50.908287
2023-02-06T05:54:23.497Z,50.908447
2023-02-06T05:55:23.490Z,50.908451
2023-02-06T05:56:23.484Z,50.908325
2023-02-06T05:57:23.495Z,50.908253
2023-02-06T05:58:23.467Z,50.908195
2023-02-06T05:59:23.453Z,50.908138
2023-02-06T06:00:23.452Z,50.908138
2023-02-06T06:01:23.448Z,50.908733
2023-02-06T06:02:23.471Z,50.908733
2023-02-06T06:03:23.456Z,50.908733
2023-02-06T06:04:23.444Z,50.908329
2023-02-06T06:05:23.407Z,50.908386
2023-02-06T06:06:23.405Z,50.908386
2023-02-06T06:07:23.403Z,50.908325
2023-02-06T06:08:23.412Z,50.908253
2023-02-06T06:09:23.382Z,50.908283
2023-02-06T06:10:23.375Z,50.908142
2023-02-06T06:11:23.366Z,50.908154
2023-02-06T06:12:23.364Z,50.908131
2023-02-06T06:13:23.372Z,50.908154
2023-02-06T06:14:23.352Z,50.908180
2023-02-06T06:15:23.333Z,50.908306
2023-02-06T06:16:23.410Z,50.908230
2023-02-06T06:17:23.318Z,50.908249
2023-02-06T06:18:23.340Z,50.908150
2023-02-06T06:19:23.298Z,50.908268
2023-02-06T06:20:23.304Z,50.908253
2023-02-06T06:21:23.283Z,50.908123
2023-02-06T06:22:23.290Z,50.908207
2023-02-06T06:23:23.333Z,50.908085
2023-02-06T06:24:23.265Z,50.908142
2023-02-06T06:25:23.257Z,50.908089
2023-02-06T06:26:23.249Z,50.908054
2023-02-06T06:27:23.246Z,50.908150
2023-02-06T06:28:23.256Z,50.908112
2023-02-06T06:29:23.232Z,50.908092
2023-02-06T06:30:23.216Z,50.908024
2023-02-06T06:31:23.321Z,50.908070
2023-02-06T06:32:23.195Z,50.908062
2023-02-06T06:33:23.218Z,50.908119
2023-02-06T06:34:23.191Z,50.908070
2023-02-06T06:35:23.181Z,50.908062
2023-02-06T06:36:23.175Z,50.908115
2023-02-06T06:37:23.146Z,50.908173
2023-02-06T06:38:24.184Z,50.908131
2023-02-06T06:39:23.127Z,50.908112
2023-02-06T06:40:24.129Z,50.908108
2023-02-06T06:41:23.140Z,50.908077
2023-02-06T06:42:23.123Z,50.908058
2023-02-06T06:43:23.150Z,50.908073
2023-02-06T06:44:23.093Z,50.908112
2023-02-06T06:45:24.198Z,50.908077
2023-02-06T06:46:23.082Z,50.908089
2023-02-06T06:47:23.081Z,50.908123
2023-02-06T06:48:23.102Z,50.908092
2023-02-06T06:49:23.079Z,50.908100
2023-02-06T06:50:23.065Z,50.908108
2023-02-06T06:51:23.047Z,50.908096
2023-02-06T06:52:25.605Z,50.908077
2023-02-06T06:53:24.065Z,50.908092
2023-02-06T06:54:23.023Z,50.908100
2023-02-06T06:55:23.035Z,50.908119
2023-02-06T06:56:23.008Z,50.908108
2023-02-06T06:57:23.007Z,50.908115
2023-02-06T06:58:23.015Z,50.908119
2023-02-06T06:59:22.984Z,50.908066
2023-02-06T07:00:22.981Z,50.908092
2023-02-06T07:01:23.013Z,50.908138
2023-02-06T07:02:22.974Z,50.908096
2023-02-06T07:03:23.042Z,50.908081
2023-02-06T07:04:23.022Z,50.908058
2023-02-06T07:05:22.941Z,50.908058
2023-02-06T07:06:22.933Z,50.907845
2023-02-06T07:07:22.947Z,50.908039
2023-02-06T07:08:22.960Z,50.908070
2023-02-06T07:09:22.916Z,50.907986
2023-02-06T07:10:22.908Z,50.907982
2023-02-06T07:11:22.896Z,50.908051
2023-02-06T07:12:22.881Z,50.908031
2023-02-06T07:13:22.911Z,50.908081
2023-02-06T07:14:22.873Z,50.908092
2023-02-06T07:15:22.864Z,50.908096
2023-02-06T07:16:22.898Z,50.908066
2023-02-06T07:17:22.863Z,50.908081
2023-02-06T07:18:22.873Z,50.908020
2023-02-06T07:19:22.866Z,50.908062
2023-02-06T07:20:22.823Z,50.908081
2023-02-06T07:21:22.816Z,50.908089
2023-02-06T07:22:22.807Z,50.908085
2023-02-06T07:23:22.832Z,50.908127
2023-02-06T07:24:22.795Z,50.908081
2023-02-06T07:25:22.774Z,50.908100
2023-02-06T07:26:23.784Z,50.908112
2023-02-06T07:27:22.884Z,50.908092
2023-02-06T07:28:22.795Z,50.908115
2023-02-06T07:29:22.753Z,50.908123
2023-02-06T07:30:22.778Z,50.908119
2023-02-06T07:31:22.767Z,50.908119
2023-02-06T07:32:22.733Z,50.908134
2023-02-06T07:33:22.728Z,50.908142
2023-02-06T07:34:22.737Z,50.908127
2023-02-06T07:35:22.701Z,50.908112
2023-02-06T07:36:22.697Z,50.908100
2023-02-06T07:37:22.694Z,50.908092
2023-02-06T07:38:22.711Z,50.908096
2023-02-06T07:39:22.697Z,50.908112
2023-02-06T07:40:22.665Z,50.908100
2023-02-06T07:41:22.661Z,50.908096
2023-02-06T07:42:22.665Z,50.908115
2023-02-06T07:43:22.651Z,50.908146
2023-02-06T07:44:22.659Z,50.908134
2023-02-06T07:45:22.641Z,50.908115
2023-02-06T07:46:22.642Z,50.908096
2023-02-06T07:47:22.622Z,50.908096
2023-02-06T07:48:22.607Z,50.908119
2023-02-06T07:49:22.621Z,50.908100
2023-02-06T07:50:22.589Z,50.908134
2023-02-06T07:51:22.574Z,50.908115
2023-02-06T07:52:22.564Z,50.908112
2023-02-06T07:53:22.574Z,50.908115
2023-02-06T07:54:22.581Z,50.908138
2023-02-06T07:55:22.550Z,50.908165
2023-02-06T07:56:22.560Z,50.908058
2023-02-06T07:57:22.528Z,50.908169
2023-02-06T07:58:22.524Z,50.908146
2023-02-06T07:59:22.549Z,50.908165
2023-02-06T08:00:22.512Z,50.908176
2023-02-06T08:01:22.558Z,50.908138
2023-02-06T08:02:22.496Z,50.908173
2023-02-06T08:03:22.492Z,50.908138
2023-02-06T08:04:22.598Z,50.908123
2023-02-06T08:05:22.468Z,50.908127
2023-02-06T08:06:24.262Z,50.908127
2023-02-06T08:07:23.464Z,50.908161
2023-02-06T08:08:22.450Z,50.908157
2023-02-06T08:09:22.467Z,50.908127
2023-02-06T08:10:22.438Z,50.908161
2023-02-06T08:11:22.427Z,50.908161
2023-02-06T08:12:22.422Z,50.908138
2023-02-06T08:13:22.416Z,50.908146
2023-02-06T08:14:22.441Z,50.908127
2023-02-06T08:15:22.404Z,50.908134
2023-02-06T08:16:22.414Z,50.908157
2023-02-06T08:17:22.400Z,50.908127
2023-02-06T08:18:22.373Z,50.908176
2023-02-06T08:19:22.390Z,50.908173
2023-02-06T08:20:22.364Z,50.908134
2023-02-06T08:21:22.361Z,50.908211
2023-02-06T08:22:22.340Z,50.908184
2023-02-06T08:23:22.405Z,50.908157
2023-02-06T08:24:22.352Z,50.908150
2023-02-06T08:25:22.326Z,50.908131
2023-02-06T08:26:22.311Z,50.908176
2023-02-06T08:27:22.304Z,50.908115
2023-02-06T08:28:22.350Z,50.908123
2023-02-06T08:29:22.310Z,50.908138
2023-02-06T08:30:22.306Z,50.908173
2023-02-06T08:31:22.343Z,50.908165
2023-02-06T08:32:22.265Z,50.908176
2023-02-06T08:33:22.251Z,50.908112
2023-02-06T08:34:22.272Z,50.908138
2023-02-06T08:35:22.239Z,50.908119
2023-02-06T08:36:22.231Z,50.908241
2023-02-06T08:37:22.237Z,50.908115
2023-02-06T08:38:22.220Z,50.908100
2023-02-06T08:39:22.231Z,50.908146
2023-02-06T08:40:22.197Z,50.908104
2023-02-06T08:41:22.215Z,50.908272
2023-02-06T08:42:22.180Z,50.908028
2023-02-06T08:43:22.177Z,50.907974
2023-02-06T08:44:22.195Z,50.908108
2023-02-06T08:45:22.148Z,50.908089
2023-02-06T08:46:22.190Z,50.908195
2023-02-06T08:47:22.169Z,50.908131
2023-02-06T08:48:22.130Z,50.908207
2023-02-06T08:49:22.147Z,50.908035
2023-02-06T08:50:22.120Z,50.908207
2023-02-06T08:51:22.104Z,50.908051
2023-02-06T08:52:22.097Z,50.907963
2023-02-06T08:53:22.093Z,50.908112
2023-02-06T08:54:22.106Z,50.908142
2023-02-06T08:55:25.394Z,50.908192
2023-02-06T08:56:22.068Z,50.908112
2023-02-06T08:57:22.056Z,50.908119
2023-02-06T08:58:22.052Z,50.908043
2023-02-06T08:59:22.065Z,50.907837
2023-02-06T09:00:22.048Z,50.908077
2023-02-06T09:01:22.048Z,50.908115
2023-02-06T09:02:22.074Z,50.908207
2023-02-06T09:03:22.048Z,50.908195
2023-02-06T09:04:22.035Z,50.908249
2023-02-06T09:05:21.996Z,50.908066
2023-02-06T09:06:21.984Z,50.908234
2023-02-06T09:07:21.983Z,50.908234
2023-02-06T09:08:21.969Z,50.908169
2023-02-06T09:09:21.960Z,50.908169
2023-02-06T09:10:27.416Z,50.908176
2023-02-06T09:11:23.940Z,50.908058
2023-02-06T09:12:22.013Z,50.908241
2023-02-06T09:13:21.930Z,50.908241
2023-02-06T09:14:21.924Z,50.908241
2023-02-06T09:15:21.951Z,50.908241
2023-02-06T09:16:21.978Z,50.908241
2023-02-06T09:17:21.930Z,50.908035
2023-02-06T09:18:21.910Z,50.907993
2023-02-06T09:19:21.913Z,50.907993
2023-02-06T09:20:21.952Z,50.907993
2023-02-06T09:21:21.864Z,50.907993
2023-02-06T09:22:21.888Z,50.907993
2023-02-06T09:23:21.848Z,50.907993
2023-02-06T09:24:21.842Z,50.907993
2023-02-06T09:25:21.884Z,50.907951
2023-02-06T09:26:21.823Z,50.908115
2023-02-06T09:27:21.817Z,50.907925
2023-02-06T09:28:21.858Z,50.908039
2023-02-06T09:29:21.800Z,50.908108
2023-02-06T09:30:21.962Z,50.908085
2023-02-06T09:31:21.821Z,50.908134
2023-02-06T09:32:21.782Z,50.908226
2023-02-06T09:33:21.767Z,50.908173
2023-02-06T09:34:21.760Z,50.908169
2023-02-06T09:35:21.772Z,50.908142
2023-02-06T09:36:21.744Z,50.908127
2023-02-06T09:37:21.740Z,50.908150
2023-02-06T09:38:21.727Z,50.908112
2023-02-06T09:39:21.722Z,50.908154
2023-02-06T09:40:21.742Z,50.908157
2023-02-06T09:41:21.702Z,50.908237
2023-02-06T09:42:21.699Z,50.908192
2023-02-06T09:43:21.695Z,50.908215
2023-02-06T09:44:21.701Z,50.908142
2023-02-06T09:45:21.699Z,50.908138
2023-02-06T09:46:21.686Z,50.908142
2023-02-06T09:47:21.680Z,50.908199
2023-02-06T09:48:21.645Z,50.908169
2023-02-06T09:49:21.642Z,50.908169
2023-02-06T09:50:21.654Z,50.908154
2023-02-06T09:51:21.658Z,50.908173
2023-02-06T09:52:21.625Z,50.908138
2023-02-06T09:53:21.606Z,50.908165
2023-02-06T09:54:21.602Z,50.908184
2023-02-06T09:55:21.637Z,50.908112
2023-02-06T09:56:21.589Z,50.908127
2023-02-06T09:57:21.579Z,50.908150
2023-02-06T09:58:21.575Z,50.908134
2023-02-06T09:59:21.575Z,50.908150
2023-02-06T10:00:21.582Z,50.908173
2023-02-06T10:01:21.563Z,50.908150
2023-02-06T10:02:21.545Z,50.908184
2023-02-06T10:03:21.535Z,50.908195
2023-02-06T10:04:21.569Z,50.908184
2023-02-06T10:05:21.517Z,50.908161
2023-02-06T10:06:21.544Z,50.908154
2023-02-06T10:07:21.528Z,50.908131
2023-02-06T10:08:21.492Z,50.908192
2023-02-06T10:09:21.492Z,50.908195
2023-02-06T10:10:21.474Z,50.908169
2023-02-06T10:11:21.494Z,50.908104
2023-02-06T10:12:21.504Z,50.908127
2023-02-06T10:13:21.458Z,50.908146
2023-02-06T10:14:21.454Z,50.908173
2023-02-06T10:15:21.437Z,50.908123
2023-02-06T10:16:21.517Z,50.908184
2023-02-06T10:17:21.422Z,50.908161
2023-02-06T10:18:21.452Z,50.908123
2023-02-06T10:19:21.442Z,50.908104
2023-02-06T10:20:21.408Z,50.908134
2023-02-06T10:21:21.414Z,50.908150
2023-02-06T10:22:21.384Z,50.908154
2023-02-06T10:23:21.386Z,50.908165
2023-02-06T10:24:21.369Z,50.908138
2023-02-06T10:25:21.362Z,50.908146
2023-02-06T10:26:21.380Z,50.908104
2023-02-06T10:27:21.350Z,50.908157
2023-02-06T10:28:21.431Z,50.908150
2023-02-06T10:29:21.332Z,50.908165
2023-02-06T10:30:21.325Z,50.908123
2023-02-06T10:31:22.434Z,50.908092
2023-02-06T10:32:21.310Z,50.908161
2023-02-06T10:33:25.602Z,50.908123
2023-02-06T10:34:22.294Z,50.908134
2023-02-06T10:35:21.284Z,50.908150
2023-02-06T10:36:21.316Z,50.908112
2023-02-06T10:37:21.269Z,50.908157
2023-02-06T10:38:21.273Z,50.908180
2023-02-06T10:39:21.254Z,50.908115
2023-02-06T10:40:21.249Z,50.908157
2023-02-06T10:41:21.272Z,50.908138
2023-02-06T10:42:22.769Z,50.908104
2023-02-06T10:43:22.247Z,50.908108
2023-02-06T10:44:21.214Z,50.908150
2023-02-06T10:45:21.213Z,50.908173
2023-02-06T10:46:21.253Z,50.908051
2023-02-06T10:47:21.195Z,50.908157
2023-02-06T10:48:21.186Z,50.908138
2023-02-06T10:49:21.182Z,50.908138
2023-02-06T10:50:21.177Z,50.908154
2023-02-06T10:51:21.197Z,50.908131
2023-02-06T10:52:21.169Z,50.908157
2023-02-06T10:53:21.152Z,50.908169
2023-02-06T10:54:21.160Z,50.908150
2023-02-06T10:55:21.144Z,50.908154
2023-02-06T10:56:21.130Z,50.908199
2023-02-06T10:57:21.147Z,50.908188
2023-02-06T10:58:21.109Z,50.908134
2023-02-06T10:59:21.107Z,50.908161
2023-02-06T11:00:21.097Z,50.908192
2023-02-06T11:01:26.362Z,50.908142
2023-02-06T11:02:23.175Z,50.908218
2023-02-06T11:03:21.073Z,50.908157
2023-02-06T11:04:21.059Z,50.908089
2023-02-06T11:05:21.053Z,50.908165
2023-02-06T11:06:21.069Z,50.908157
2023-02-06T11:07:21.065Z,50.908169
2023-02-06T11:08:21.037Z,50.908115
2023-02-06T11:09:21.024Z,50.908150
2023-02-06T11:10:21.020Z,50.908138
2023-02-06T11:11:21.009Z,50.908085
2023-02-06T11:12:21.034Z,50.908138
2023-02-06T11:13:20.997Z,50.908131
2023-02-06T11:14:20.996Z,50.908146
2023-02-06T11:15:20.979Z,50.908154
2023-02-06T11:16:21.050Z,50.908173
2023-02-06T11:17:21.017Z,50.908104
2023-02-06T11:18:20.958Z,50.908131
2023-02-06T11:19:20.948Z,50.908184
2023-02-06T11:20:20.941Z,50.908192
2023-02-06T11:21:20.931Z,50.908161
2023-02-06T11:22:20.995Z,50.908184
2023-02-06T11:23:20.918Z,50.908146
2023-02-06T11:24:20.912Z,50.908112